createdAt,value
2022-09-21T00:00:21.545Z,6.80
2022-09-21T00:02:51.629Z,16.32
2022-09-21T00:05:21.762Z,16.07
2022-09-21T00:07:51.971Z,14.55
2022-09-21T00:10:22.703Z,8.43
2022-09-21T00:12:52.904Z,6.28
2022-09-21T00:15:22.958Z,7.08
2022-09-21T00:17:54.348Z,6.10
2022-09-21T00:20:25.640Z,6.72
2022-09-21T00:22:55.966Z,6.80
2022-09-21T00:25:26.189Z,6.97
2022-09-21T00:27:57.010Z,6.60
2022-09-21T00:30:27.008Z,7.42
2022-09-21T00:32:57.163Z,10.18
2022-09-21T00:35:27.692Z,6.78
2022-09-21T00:37:58.163Z,8.90
2022-09-21T00:40:28.366Z,6.92
2022-09-21T00:42:59.825Z,5.90
2022-09-21T00:45:29.853Z,5.50
2022-09-21T00:48:00.146Z,5.42
2022-09-21T00:50:30.296Z,5.20
2022-09-21T00:53:00.684Z,5.05
2022-09-21T00:55:32.341Z,5.25
2022-09-21T00:58:03.893Z,4.45
2022-09-21T01:00:33.921Z,5.03
2022-09-21T01:03:04.314Z,5.55
2022-09-21T01:05:35.203Z,5.12
2022-09-21T01:08:06.624Z,6.50
2022-09-21T01:10:38.075Z,6.17
2022-09-21T01:13:09.336Z,5.58
2022-09-21T01:15:40.711Z,5.50
2022-09-21T01:18:11.999Z,5.22
2022-09-21T01:20:43.503Z,5.78
2022-09-21T01:23:14.854Z,5.92
2022-09-21T01:25:46.100Z,5.60
2022-09-21T01:28:17.389Z,6.05
2022-09-21T01:30:49.154Z,6.28
2022-09-21T01:33:20.563Z,5.87
2022-09-21T01:35:52.325Z,6.17
2022-09-21T01:38:23.573Z,5.97
2022-09-21T01:40:55.400Z,5.95
2022-09-21T01:43:26.687Z,5.90
2022-09-21T01:45:58.090Z,5.90
2022-09-21T01:48:28.262Z,5.78
2022-09-21T01:50:59.876Z,6.58
2022-09-21T01:53:31.179Z,5.97
2022-09-21T01:56:02.561Z,6.00
2022-09-21T01:58:34.335Z,5.75
2022-09-21T02:01:05.244Z,7.10
2022-09-21T02:03:36.693Z,5.65
2022-09-21T02:06:07.978Z,5.55
2022-09-21T02:08:38.503Z,5.75
2022-09-21T02:11:09.338Z,5.05
2022-09-21T02:13:40.838Z,5.50
2022-09-21T02:16:13.354Z,6.47
2022-09-21T02:18:44.900Z,5.92
2022-09-21T02:21:16.374Z,6.30
2022-09-21T02:23:47.637Z,6.95
2022-09-21T02:26:18.886Z,6.40
2022-09-21T02:28:50.449Z,6.47
2022-09-21T02:31:21.791Z,6.45
2022-09-21T02:33:51.968Z,5.67
2022-09-21T02:36:23.245Z,5.50
2022-09-21T02:38:54.526Z,6.17
2022-09-21T02:41:25.886Z,5.42
2022-09-21T02:43:57.816Z,6.33
2022-09-21T02:46:29.547Z,5.45
2022-09-21T02:49:02.009Z,6.28
2022-09-21T02:51:33.866Z,5.70
2022-09-21T02:54:05.141Z,6.20
2022-09-21T02:56:35.450Z,5.33
2022-09-21T02:59:06.945Z,4.90
2022-09-21T03:01:37.337Z,4.70
2022-09-21T03:04:07.555Z,5.35
2022-09-21T03:06:38.143Z,5.17
2022-09-21T03:09:08.210Z,5.20
2022-09-21T03:11:38.338Z,5.08
2022-09-21T03:14:09.883Z,5.17
2022-09-21T03:16:40.651Z,5.37
2022-09-21T03:19:15.582Z,5.72
2022-09-21T03:21:45.345Z,5.45
2022-09-21T03:24:16.794Z,5.80
2022-09-21T03:26:47.323Z,5.40
2022-09-21T03:29:17.752Z,5.10
2022-09-21T03:31:47.968Z,5.00
2022-09-21T03:34:18.017Z,5.30
2022-09-21T03:36:49.427Z,4.67
2022-09-21T03:39:24.011Z,5.33
2022-09-21T03:41:55.412Z,5.33
2022-09-21T03:44:26.136Z,5.22
2022-09-21T03:46:57.496Z,4.85
2022-09-21T03:49:28.808Z,4.87
2022-09-21T03:51:59.405Z,9.40
2022-09-21T03:54:29.472Z,6.65
2022-09-21T03:57:01.776Z,5.20
2022-09-21T03:59:31.928Z,4.47
2022-09-21T04:02:05.431Z,5.05
2022-09-21T04:04:35.524Z,4.40
2022-09-21T04:07:07.568Z,4.65
2022-09-21T04:09:40.146Z,4.33
2022-09-21T04:12:12.826Z,4.45
2022-09-21T04:14:48.876Z,5.40
2022-09-21T04:17:33.405Z,4.83
2022-09-21T04:20:05.790Z,5.33
2022-09-21T04:22:41.237Z,5.22
2022-09-21T04:25:12.390Z,5.62
2022-09-21T04:27:44.432Z,4.53
2022-09-21T04:30:18.977Z,4.40
2022-09-21T04:32:49.943Z,4.60
2022-09-21T04:35:19.948Z,4.22
2022-09-21T04:37:50.142Z,4.22
2022-09-21T04:40:20.302Z,4.55
2022-09-21T04:42:55.497Z,4.10
2022-09-21T04:45:26.194Z,4.50
2022-09-21T04:47:56.591Z,4.15
2022-09-21T04:50:26.824Z,4.45
2022-09-21T04:52:56.935Z,4.40
2022-09-21T04:55:26.974Z,4.70
2022-09-21T04:57:57.070Z,4.62
2022-09-21T05:00:28.114Z,4.33
2022-09-21T05:03:01.302Z,4.40
2022-09-21T05:05:34.706Z,4.22
2022-09-21T05:08:04.934Z,4.53
2022-09-21T05:10:34.957Z,4.08
2022-09-21T05:13:05.013Z,4.35
2022-09-21T05:15:35.319Z,4.15
2022-09-21T05:18:05.671Z,4.22
2022-09-21T05:20:36.037Z,6.20
2022-09-21T05:23:06.097Z,4.60
2022-09-21T05:25:36.099Z,4.45
2022-09-21T05:28:06.396Z,4.15
2022-09-21T05:30:47.742Z,4.30
2022-09-21T05:33:13.007Z,3.72
2022-09-21T05:35:46.079Z,4.60
2022-09-21T05:38:17.522Z,4.20
2022-09-21T05:40:48.977Z,3.92
2022-09-21T05:43:19.811Z,4.35
2022-09-21T05:45:53.317Z,3.55
2022-09-21T05:48:25.702Z,4.20
2022-09-21T05:50:55.557Z,3.85
2022-09-21T05:53:26.947Z,4.30
2022-09-21T05:55:58.240Z,4.35
2022-09-21T05:58:31.078Z,4.62
2022-09-21T06:01:02.264Z,4.55
2022-09-21T06:03:33.589Z,4.50
2022-09-21T06:06:04.203Z,4.80
2022-09-21T06:08:34.329Z,4.17
2022-09-21T06:11:04.675Z,4.58
2022-09-21T06:13:34.728Z,4.37
2022-09-21T06:16:05.091Z,4.25
2022-09-21T06:18:39.692Z,4.08
2022-09-21T06:21:10.202Z,5.00
2022-09-21T06:23:40.980Z,4.83
2022-09-21T06:26:11.223Z,4.30
2022-09-21T06:28:41.209Z,4.67
2022-09-21T06:31:11.364Z,4.20
2022-09-21T06:33:43.869Z,4.35
2022-09-21T06:36:12.910Z,4.22
2022-09-21T06:38:42.913Z,4.72
2022-09-21T06:41:15.266Z,4.17
2022-09-21T06:43:44.712Z,4.08
2022-09-21T06:46:14.823Z,4.78
2022-09-21T06:48:45.232Z,4.20
2022-09-21T06:51:15.465Z,4.53
2022-09-21T06:53:45.571Z,4.83
2022-09-21T06:56:16.071Z,4.87
2022-09-21T06:58:47.428Z,4.42
2022-09-21T07:01:17.813Z,4.45
2022-09-21T07:03:49.170Z,4.53
2022-09-21T07:06:19.995Z,6.75
2022-09-21T07:11:23.214Z,4.65
2022-09-21T07:13:54.619Z,4.53
2022-09-21T07:16:25.514Z,4.92
2022-09-21T07:18:56.901Z,4.22
2022-09-21T07:21:30.165Z,5.37
2022-09-21T07:24:01.529Z,4.80
2022-09-21T07:26:31.747Z,4.78
2022-09-21T07:29:02.064Z,4.25
2022-09-21T07:31:32.142Z,4.67
2022-09-21T07:34:02.343Z,4.30
2022-09-21T07:36:32.738Z,4.40
2022-09-21T07:39:04.238Z,4.60
2022-09-21T07:41:34.573Z,4.33
2022-09-21T07:44:05.567Z,4.70
2022-09-21T07:46:37.197Z,5.10
2022-09-21T07:49:07.681Z,4.45
2022-09-21T07:51:38.321Z,4.75
2022-09-21T07:54:09.416Z,4.50
2022-09-21T07:56:40.107Z,4.60
2022-09-21T07:59:11.924Z,5.15
2022-09-21T08:01:42.882Z,5.42
2022-09-21T08:04:13.466Z,4.80
2022-09-21T08:06:43.557Z,5.22
2022-09-21T08:09:13.767Z,4.83
2022-09-21T08:11:45.258Z,4.62
2022-09-21T08:14:17.132Z,4.30
2022-09-21T08:16:48.263Z,4.85
2022-09-21T08:19:24.680Z,4.70
2022-09-21T08:24:43.402Z,5.08
2022-09-21T08:27:15.471Z,4.70
2022-09-21T08:29:45.478Z,5.20
2022-09-21T08:32:33.109Z,4.45
2022-09-21T08:34:47.021Z,4.72
2022-09-21T08:43:26.807Z,4.40
2022-09-21T08:45:57.604Z,4.70
2022-09-21T08:48:36.515Z,4.60
2022-09-21T08:51:04.340Z,5.13
2022-09-21T08:53:35.893Z,4.47
2022-09-21T08:56:06.116Z,4.20
2022-09-21T08:58:36.414Z,4.55
2022-09-21T09:01:07.829Z,4.50
2022-09-21T09:03:41.694Z,4.35
2022-09-21T09:06:12.773Z,4.30
2022-09-21T09:08:44.056Z,4.85
2022-09-21T09:11:15.367Z,4.78
2022-09-21T09:13:46.681Z,4.90
2022-09-21T09:16:18.194Z,5.12
2022-09-21T09:18:49.689Z,5.12
2022-09-21T09:21:29.821Z,5.22
2022-09-21T09:23:53.609Z,5.30
2022-09-21T09:26:25.090Z,4.70
2022-09-21T09:29:01.148Z,4.95
2022-09-21T09:31:32.657Z,4.20
2022-09-21T09:34:04.021Z,4.97
2022-09-21T09:36:57.368Z,4.53
2022-09-21T09:39:08.193Z,4.62
2022-09-21T09:41:39.709Z,4.65
2022-09-21T09:44:11.261Z,5.10
2022-09-21T09:46:44.117Z,5.03
2022-09-21T09:49:15.843Z,4.90
2022-09-21T09:51:46.545Z,4.85
2022-09-21T09:54:21.664Z,4.80
2022-09-21T09:56:51.899Z,4.75
2022-09-21T09:59:23.470Z,4.70
2022-09-21T10:01:54.772Z,4.62
2022-09-21T10:04:24.970Z,4.50
2022-09-21T10:06:55.048Z,4.42
2022-09-21T10:09:24.749Z,4.92
2022-09-21T10:11:56.097Z,5.75
2022-09-21T10:14:27.137Z,5.00
2022-09-21T10:16:58.384Z,4.80
2022-09-21T10:19:30.245Z,5.55
2022-09-21T10:22:04.462Z,5.67
2022-09-21T10:24:35.489Z,5.12
2022-09-21T10:27:08.310Z,4.95
2022-09-21T10:29:42.707Z,4.85
2022-09-21T10:32:15.319Z,5.30
2022-09-21T10:34:47.761Z,5.67
2022-09-21T10:37:19.116Z,5.42
2022-09-21T10:39:49.535Z,4.67
2022-09-21T10:42:26.825Z,4.72
2022-09-21T10:44:53.753Z,5.30
2022-09-21T10:47:25.541Z,5.00
2022-09-21T10:49:57.329Z,5.00
2022-09-21T10:52:28.814Z,5.28
2022-09-21T10:54:59.286Z,5.50
2022-09-21T10:57:33.135Z,5.37
2022-09-21T11:00:04.626Z,5.00
2022-09-21T11:02:36.184Z,5.95
2022-09-21T11:05:07.772Z,5.15
2022-09-21T11:07:39.058Z,5.45
2022-09-21T11:10:10.431Z,6.30
2022-09-21T11:12:41.701Z,6.33
2022-09-21T11:15:11.384Z,6.30
2022-09-21T11:17:42.770Z,6.35
2022-09-21T11:20:14.141Z,5.35
2022-09-21T11:22:45.511Z,5.72
2022-09-21T11:25:16.861Z,5.85
2022-09-21T11:27:49.613Z,6.20
2022-09-21T11:30:20.625Z,6.15
2022-09-21T11:32:51.903Z,6.10
2022-09-21T11:35:24.583Z,5.83
2022-09-21T11:37:55.917Z,7.20
2022-09-21T11:40:28.884Z,6.45
2022-09-21T11:42:58.323Z,6.03
2022-09-21T11:45:29.732Z,6.37
2022-09-21T11:47:59.480Z,6.85
2022-09-21T11:50:31.289Z,6.10
2022-09-21T11:53:04.815Z,7.40
2022-09-21T11:55:35.655Z,7.25
2022-09-21T11:58:08.285Z,7.55
2022-09-21T12:00:39.583Z,8.50
2022-09-21T12:03:10.951Z,8.43
2022-09-21T12:05:42.316Z,8.80
2022-09-21T12:08:13.766Z,8.65
2022-09-21T12:10:45.155Z,8.48
2022-09-21T12:13:19.440Z,8.58
2022-09-21T12:15:49.260Z,8.73
2022-09-21T12:18:20.551Z,7.75
2022-09-21T12:20:51.797Z,8.30
2022-09-21T12:23:23.042Z,8.43
2022-09-21T12:25:54.798Z,7.72
2022-09-21T12:28:26.214Z,8.55
2022-09-21T12:31:00.648Z,8.60
2022-09-21T12:33:30.284Z,8.93
2022-09-21T12:36:01.650Z,8.58
2022-09-21T12:41:04.206Z,9.03
2022-09-21T12:43:38.064Z,9.63
2022-09-21T12:46:08.351Z,8.53
2022-09-21T12:48:40.776Z,8.08
2022-09-21T12:51:13.389Z,8.28
2022-09-21T12:53:47.341Z,8.88
2022-09-21T12:56:17.813Z,8.83
2022-09-21T12:58:47.472Z,9.80
2022-09-21T13:01:17.423Z,7.40
2022-09-21T13:03:48.906Z,8.48
2022-09-21T13:06:20.261Z,6.55
2022-09-21T13:08:51.075Z,5.70
2022-09-21T13:11:22.853Z,6.37
2022-09-21T13:13:54.405Z,5.83
2022-09-21T13:16:26.395Z,5.72
2022-09-21T13:18:57.815Z,5.87
2022-09-21T13:21:30.599Z,5.33
2022-09-21T13:24:02.563Z,5.50
2022-09-21T13:26:33.981Z,5.80
2022-09-21T13:29:05.446Z,5.95
2022-09-21T13:31:40.777Z,5.67
2022-09-21T13:34:10.616Z,5.22
2022-09-21T13:36:40.882Z,4.97
2022-09-21T13:39:10.977Z,5.35
2022-09-21T13:42:01.744Z,5.60
2022-09-21T13:44:13.764Z,4.85
2022-09-21T13:46:44.579Z,5.72
2022-09-21T13:49:15.697Z,7.03
2022-09-21T13:51:47.294Z,8.73
2022-09-21T13:54:17.652Z,8.95
2022-09-21T13:56:48.048Z,9.43
2022-09-21T13:59:19.719Z,7.37
2022-09-21T14:01:50.305Z,6.78
2022-09-21T14:04:21.779Z,8.15
2022-09-21T14:06:52.904Z,7.85
2022-09-21T14:09:24.278Z,7.92
2022-09-21T14:11:56.319Z,8.48
2022-09-21T14:14:27.999Z,7.87
2022-09-21T14:16:59.502Z,8.45
2022-09-21T14:19:30.632Z,9.03
2022-09-21T14:22:02.023Z,8.03
2022-09-21T14:24:33.397Z,7.58
2022-09-21T14:27:04.753Z,8.50
2022-09-21T14:29:36.055Z,8.93
2022-09-21T14:32:07.636Z,8.18
2022-09-21T14:34:39.338Z,7.22
2022-09-21T14:37:10.635Z,7.12
2022-09-21T14:39:43.292Z,6.90
2022-09-21T14:42:15.970Z,6.20
2022-09-21T14:44:48.017Z,6.45
2022-09-21T14:47:19.505Z,6.33
2022-09-21T14:49:50.817Z,6.25
2022-09-21T14:52:29.726Z,6.10
2022-09-21T14:54:55.017Z,6.35
2022-09-21T14:57:25.384Z,6.10
2022-09-21T14:59:56.989Z,6.47
2022-09-21T15:02:28.670Z,6.33
2022-09-21T15:04:58.558Z,6.55
2022-09-21T15:07:31.182Z,5.83
2022-09-21T15:10:03.805Z,5.75
2022-09-21T15:12:35.270Z,5.25
2022-09-21T15:15:06.555Z,4.83
2022-09-21T15:17:36.563Z,5.35
2022-09-21T15:20:08.580Z,5.33
2022-09-21T15:22:39.921Z,4.87
2022-09-21T15:25:11.500Z,4.75
2022-09-21T15:27:42.849Z,4.80
2022-09-21T15:30:14.205Z,4.12
2022-09-21T15:32:45.614Z,4.28
2022-09-21T15:35:17.289Z,4.15
2022-09-21T15:37:47.814Z,3.20
2022-09-21T15:40:19.146Z,3.55
2022-09-21T15:42:50.634Z,4.30
2022-09-21T15:45:21.193Z,3.67
2022-09-21T15:47:51.410Z,3.70
2022-09-21T15:50:21.878Z,3.98
2022-09-21T15:52:53.570Z,3.67
2022-09-21T15:55:24.632Z,3.45
2022-09-21T15:57:57.503Z,3.87
2022-09-21T16:00:29.177Z,3.80
2022-09-21T16:03:01.936Z,4.67
2022-09-21T16:05:34.599Z,4.97
2022-09-21T16:08:05.965Z,4.78
2022-09-21T16:10:35.651Z,4.15
2022-09-21T16:13:08.240Z,4.30
2022-09-21T16:15:38.330Z,5.00
2022-09-21T16:18:09.031Z,4.47
2022-09-21T16:20:40.352Z,5.40
2022-09-21T16:23:12.184Z,4.37
2022-09-21T16:25:44.279Z,4.70
2022-09-21T16:28:16.558Z,4.60
2022-09-21T16:30:50.397Z,4.33
2022-09-21T16:33:21.907Z,5.00
2022-09-21T16:35:52.382Z,4.58
2022-09-21T16:38:23.887Z,5.08
2022-09-21T16:40:55.185Z,4.62
2022-09-21T16:43:25.573Z,4.53
2022-09-21T16:45:55.785Z,4.62
2022-09-21T16:48:25.902Z,4.85
2022-09-21T16:50:55.912Z,4.95
2022-09-21T16:53:27.473Z,4.97
2022-09-21T16:55:57.696Z,5.45
2022-09-21T16:58:28.430Z,4.65
2022-09-21T17:01:00.927Z,5.25
2022-09-21T17:03:32.049Z,5.47
2022-09-21T17:06:02.075Z,4.85
2022-09-21T17:08:33.446Z,4.78
2022-09-21T17:11:04.456Z,5.60
2022-09-21T17:13:34.729Z,4.62
2022-09-21T17:16:04.872Z,4.78
2022-09-21T17:18:36.460Z,4.80
2022-09-21T17:21:06.680Z,5.00
2022-09-21T17:23:37.512Z,5.35
2022-09-21T17:26:08.823Z,4.67
2022-09-21T17:28:38.801Z,4.90
2022-09-21T17:31:10.502Z,5.08
2022-09-21T17:33:40.614Z,5.25
2022-09-21T17:36:11.904Z,5.58
2022-09-21T17:38:43.574Z,5.70
2022-09-21T17:41:16.328Z,5.30
2022-09-21T17:43:49.308Z,6.08
2022-09-21T17:46:20.691Z,6.08
2022-09-21T17:48:50.837Z,5.80
2022-09-21T17:51:22.389Z,5.90
2022-09-21T17:53:53.500Z,5.42
2022-09-21T17:56:26.174Z,5.50
2022-09-21T17:58:58.113Z,5.58
2022-09-21T18:01:29.441Z,5.62
2022-09-21T18:04:00.219Z,5.78
2022-09-21T18:06:33.409Z,6.80
2022-09-21T18:09:03.688Z,6.25
2022-09-21T18:11:35.392Z,6.50
2022-09-21T18:14:06.741Z,6.22
2022-09-21T18:16:38.040Z,6.83
2022-09-21T18:19:09.407Z,6.53
2022-09-21T18:21:41.917Z,6.10
2022-09-21T18:24:21.832Z,6.87
2022-09-21T18:27:00.158Z,6.25
2022-09-21T18:29:41.399Z,6.50
2022-09-21T18:32:05.440Z,7.30
2022-09-21T18:34:35.761Z,6.78
2022-09-21T18:37:11.950Z,6.62
2022-09-21T18:39:38.196Z,6.15
2022-09-21T18:42:09.461Z,6.30
2022-09-21T18:44:40.919Z,6.20
2022-09-21T18:47:12.741Z,6.60
2022-09-21T18:49:42.955Z,6.75
2022-09-21T18:52:14.380Z,7.22
2022-09-21T18:54:44.610Z,6.97
2022-09-21T18:57:16.340Z,6.50
2022-09-21T18:59:46.789Z,6.80
2022-09-21T19:02:18.425Z,5.97
2022-09-21T19:04:50.331Z,6.12
2022-09-21T19:07:21.810Z,7.08
2022-09-21T19:09:53.275Z,7.72
2022-09-21T19:12:25.034Z,7.42
2022-09-21T19:14:56.288Z,7.72
2022-09-21T19:17:27.325Z,7.50
2022-09-21T19:19:59.318Z,7.15
2022-09-21T19:22:30.667Z,6.90
2022-09-21T19:25:02.046Z,7.58
2022-09-21T19:27:32.325Z,6.95
2022-09-21T19:30:04.977Z,7.22
2022-09-21T19:32:36.714Z,7.65
2022-09-21T19:35:08.011Z,7.62
2022-09-21T19:37:38.131Z,7.33
2022-09-21T19:40:09.075Z,6.92
2022-09-21T19:42:40.657Z,7.30
2022-09-21T19:45:12.110Z,7.40
2022-09-21T19:47:43.538Z,7.53
2022-09-21T19:50:14.786Z,7.72
2022-09-21T19:52:44.998Z,7.75
2022-09-21T19:55:17.608Z,6.70
2022-09-21T19:57:49.281Z,7.67
2022-09-21T20:00:20.280Z,8.03
2022-09-21T20:02:53.014Z,7.37
2022-09-21T20:05:24.722Z,7.67
2022-09-21T20:07:56.326Z,8.53
2022-09-21T20:10:27.851Z,7.60
2022-09-21T20:12:59.277Z,7.85
2022-09-21T20:15:31.035Z,7.65
2022-09-21T20:18:02.293Z,7.92
2022-09-21T20:20:33.528Z,7.90
2022-09-21T20:23:03.752Z,7.30
2022-09-21T20:25:35.998Z,7.53
2022-09-21T20:28:06.501Z,7.53
2022-09-21T20:30:38.751Z,7.92
2022-09-21T20:33:10.171Z,8.15
2022-09-21T20:35:40.341Z,7.67
2022-09-21T20:38:10.967Z,8.03
2022-09-21T20:40:42.036Z,8.33
2022-09-21T20:43:12.494Z,7.95
2022-09-21T20:45:44.048Z,7.75
2022-09-21T20:48:15.517Z,7.47
2022-09-21T20:50:47.359Z,7.47
2022-09-21T20:53:17.944Z,7.37
2022-09-21T20:55:49.248Z,7.53
2022-09-21T20:58:19.251Z,7.75
2022-09-21T21:00:53.993Z,7.40
2022-09-21T21:03:22.502Z,8.05
2022-09-21T21:05:52.515Z,7.85
2022-09-21T21:08:22.703Z,8.83
2022-09-21T21:10:53.257Z,7.40
2022-09-21T21:13:23.763Z,8.38
2022-09-21T21:15:55.211Z,7.60
2022-09-21T21:18:25.606Z,9.75
2022-09-21T21:20:55.864Z,8.03
2022-09-21T21:23:25.881Z,9.00
2022-09-21T21:25:56.005Z,8.15
2022-09-21T21:28:27.493Z,8.60
2022-09-21T21:30:58.094Z,8.53
2022-09-21T21:33:28.417Z,8.35
2022-09-21T21:35:59.754Z,7.92
2022-09-21T21:38:29.871Z,7.80
2022-09-21T21:41:00.199Z,6.92
2022-09-21T21:43:31.548Z,7.45
2022-09-21T21:46:02.787Z,7.55
2022-09-21T21:48:32.906Z,8.25
2022-09-21T21:51:03.402Z,7.28
2022-09-21T21:53:34.663Z,8.30
2022-09-21T21:56:06.036Z,7.70
2022-09-21T21:58:36.632Z,8.10
2022-09-21T22:01:07.948Z,7.72
2022-09-21T22:03:38.037Z,7.85
2022-09-21T22:06:09.093Z,7.55
2022-09-21T22:08:40.428Z,7.12
2022-09-21T22:11:11.116Z,7.87
2022-09-21T22:13:42.232Z,8.20
2022-09-21T22:16:13.815Z,7.92
2022-09-21T22:18:44.976Z,7.70
2022-09-21T22:21:16.559Z,7.65
2022-09-21T22:23:46.778Z,6.83
2022-09-21T22:26:17.993Z,7.35
2022-09-21T22:28:49.379Z,7.40
2022-09-21T22:31:20.657Z,7.37
2022-09-21T22:33:51.146Z,6.62
2022-09-21T22:36:22.350Z,7.03
2022-09-21T22:38:52.543Z,7.28
2022-09-21T22:41:24.159Z,6.08
2022-09-21T22:43:55.263Z,6.58
2022-09-21T22:46:26.188Z,6.67
2022-09-21T22:48:56.495Z,6.30
2022-09-21T22:51:26.720Z,6.35
2022-09-21T22:53:56.852Z,6.08
2022-09-21T22:56:29.597Z,6.50
2022-09-21T22:59:01.411Z,6.30
2022-09-21T23:01:33.308Z,6.10
2022-09-21T23:04:04.845Z,6.33
2022-09-21T23:06:36.736Z,5.87
2022-09-21T23:09:08.495Z,6.75
2022-09-21T23:11:40.268Z,6.92
2022-09-21T23:14:10.611Z,7.33
2022-09-21T23:16:40.817Z,6.97
2022-09-21T23:19:12.441Z,7.97
2022-09-21T23:21:42.621Z,6.85
2022-09-21T23:24:14.171Z,6.97
2022-09-21T23:26:44.759Z,7.40
2022-09-21T23:29:16.374Z,6.95
2022-09-21T23:31:46.880Z,6.45
2022-09-21T23:34:17.362Z,6.72
2022-09-21T23:36:47.660Z,7.25
2022-09-21T23:39:17.849Z,6.85
2022-09-21T23:41:48.141Z,7.58
2022-09-21T23:44:18.328Z,7.40
2022-09-21T23:46:48.678Z,6.95
2022-09-21T23:49:18.909Z,7.08
2022-09-21T23:51:49.001Z,7.25
2022-09-21T23:54:20.402Z,7.25
2022-09-21T23:56:50.558Z,6.95
2022-09-21T23:59:20.644Z,6.85
